createdAt,value
2023-04-15T00:01:41.095Z,98823.47
2023-04-15T00:04:08.078Z,98830.09
2023-04-15T00:06:36.879Z,98828.16
2023-04-15T00:09:05.290Z,98831.91
2023-04-15T00:11:32.216Z,98834.66
2023-04-15T00:13:59.139Z,98832.19
2023-04-15T00:16:26.098Z,98837.13
2023-04-15T00:18:53.062Z,98840.00
2023-04-15T00:21:20.018Z,98833.19
2023-04-15T00:23:46.994Z,98837.91
2023-04-15T00:26:15.465Z,98826.53
2023-04-15T00:28:43.362Z,98826.69
2023-04-15T00:31:10.371Z,98824.38
2023-04-15T00:33:37.218Z,98832.00
2023-04-15T00:36:06.340Z,98832.81
2023-04-15T00:38:33.301Z,98828.03
2023-04-15T00:41:00.535Z,98832.31
2023-04-15T00:43:28.820Z,98830.09
2023-04-15T00:45:59.673Z,98827.41
2023-04-15T00:48:28.110Z,98825.13
2023-04-15T00:50:55.189Z,98813.53
2023-04-15T00:53:22.117Z,98823.84
2023-04-15T00:55:49.421Z,98819.47
2023-04-15T00:58:16.780Z,98821.75
2023-04-15T01:00:45.649Z,98822.59
2023-04-15T01:03:12.935Z,98822.00
2023-04-15T01:05:40.043Z,98813.50
2023-04-15T01:08:07.203Z,98822.78
2023-04-15T01:10:34.260Z,98823.03
2023-04-15T01:13:02.670Z,98830.06
2023-04-15T01:15:29.890Z,98825.94
2023-04-15T01:18:00.351Z,98830.06
2023-04-15T01:20:29.228Z,98838.53
2023-04-15T01:22:56.719Z,98835.63
2023-04-15T01:25:32.405Z,98833.19
2023-04-15T01:27:59.792Z,98826.63
2023-04-15T01:30:26.942Z,98826.41
2023-04-15T01:32:54.412Z,98820.22
2023-04-15T01:35:40.828Z,98830.31
2023-04-15T01:38:11.179Z,98819.59
2023-04-15T01:40:40.866Z,98822.91
2023-04-15T01:43:07.941Z,98828.06
2023-04-15T01:45:34.985Z,98820.03
2023-04-15T01:48:04.513Z,98822.88
2023-04-15T01:50:31.434Z,98818.94
2023-04-15T01:52:58.429Z,98825.75
2023-04-15T01:55:25.522Z,98820.97
2023-04-15T01:57:53.771Z,98817.66
2023-04-15T02:00:21.776Z,98813.97
2023-04-15T02:02:48.986Z,98813.56
2023-04-15T02:05:16.798Z,98818.31
2023-04-15T02:07:48.290Z,98819.72
2023-04-15T02:10:15.111Z,98817.06
2023-04-15T02:12:42.394Z,98822.03
2023-04-15T02:15:11.350Z,98827.38
2023-04-15T02:17:38.581Z,98826.97
2023-04-15T02:20:08.651Z,98829.31
2023-04-15T02:22:36.106Z,98814.88
2023-04-15T02:25:03.314Z,98812.59
2023-04-15T02:27:32.288Z,98817.53
2023-04-15T02:29:59.344Z,98826.66
2023-04-15T02:32:27.872Z,98817.16
2023-04-15T02:34:55.960Z,98808.69
2023-04-15T02:37:23.246Z,98811.34
2023-04-15T02:39:50.329Z,98815.50
2023-04-15T02:42:18.587Z,98817.34
2023-04-15T02:44:45.510Z,98813.41
2023-04-15T02:47:12.745Z,98821.88
2023-04-15T02:49:40.997Z,98823.94
2023-04-15T02:52:08.208Z,98820.84
2023-04-15T02:54:35.252Z,98819.94
2023-04-15T02:57:02.615Z,98823.25
2023-04-15T02:59:29.558Z,98819.13
2023-04-15T03:07:11.529Z,98818.75
2023-04-15T03:09:43.919Z,98815.16
2023-04-15T03:12:10.844Z,98818.94
2023-04-15T03:14:37.753Z,98816.75
2023-04-15T03:17:05.111Z,98812.03
2023-04-15T03:19:32.462Z,98806.28
2023-04-15T03:21:59.419Z,98820.91
2023-04-15T03:24:27.839Z,98816.50
2023-04-15T03:26:56.628Z,98810.34
2023-04-15T03:29:24.337Z,98814.31
2023-04-15T03:31:52.635Z,98819.69
2023-04-15T03:34:19.700Z,98817.84
2023-04-15T03:36:47.176Z,98816.63
2023-04-15T03:39:14.218Z,98811.50
2023-04-15T03:41:42.619Z,98809.03
2023-04-15T03:44:09.528Z,98815.81
2023-04-15T03:46:36.627Z,98813.16
2023-04-15T03:49:03.656Z,98810.25
2023-04-15T03:51:30.700Z,98807.38
2023-04-15T03:53:57.570Z,98807.13
2023-04-15T03:56:24.627Z,98805.91
2023-04-15T03:58:53.163Z,98806.13
2023-04-15T04:01:20.343Z,98810.88
2023-04-15T04:03:47.422Z,98808.41
2023-04-15T04:06:14.984Z,98808.81
2023-04-15T04:08:42.306Z,98806.16
2023-04-15T04:11:09.365Z,98814.16
2023-04-15T04:13:36.337Z,98813.28
2023-04-15T04:16:05.961Z,98813.44
2023-04-15T04:18:33.603Z,98823.09
2023-04-15T04:21:00.964Z,98811.31
2023-04-15T04:23:27.997Z,98817.25
2023-04-15T04:25:55.485Z,98823.59
2023-04-15T04:28:22.500Z,98827.00
2023-04-15T04:30:49.476Z,98815.09
2023-04-15T04:33:17.815Z,98812.69
2023-04-15T04:35:44.759Z,98816.38
2023-04-15T04:38:11.602Z,98821.84
2023-04-15T04:40:38.712Z,98830.72
2023-04-15T04:43:05.867Z,98832.59
2023-04-15T04:45:32.696Z,98840.00
2023-04-15T04:48:00.234Z,98836.78
2023-04-15T04:50:28.502Z,98837.66
2023-04-15T04:52:55.863Z,98838.50
2023-04-15T04:55:22.693Z,98844.91
2023-04-15T04:57:49.897Z,98853.13
2023-04-15T05:00:18.187Z,98857.50
2023-04-15T05:02:46.307Z,98854.81
2023-04-15T05:05:13.341Z,98858.75
2023-04-15T05:07:41.662Z,98852.84
2023-04-15T05:10:10.144Z,98856.44
2023-04-15T05:12:37.122Z,98843.97
2023-04-15T05:15:05.512Z,98841.53
2023-04-15T05:17:32.637Z,98840.75
2023-04-15T05:19:59.560Z,98836.69
2023-04-15T05:22:26.955Z,98845.19
2023-04-15T05:24:56.017Z,98841.16
2023-04-15T05:27:23.128Z,98846.13
2023-04-15T05:29:50.108Z,98844.13
2023-04-15T05:32:17.102Z,98852.19
2023-04-15T05:34:44.009Z,98854.66
2023-04-15T05:37:11.016Z,98853.66
2023-04-15T05:39:38.926Z,98851.38
2023-04-15T05:42:07.158Z,98851.16
2023-04-15T05:44:34.924Z,98854.28
2023-04-15T05:47:02.118Z,98856.47
2023-04-15T05:49:29.482Z,98848.56
2023-04-15T05:51:56.713Z,98849.59
2023-04-15T05:54:23.835Z,98850.09
2023-04-15T05:56:51.230Z,98852.81
2023-04-15T05:59:20.145Z,98857.72
2023-04-15T06:01:47.057Z,98858.59
2023-04-15T06:04:14.863Z,98861.97
2023-04-15T06:06:41.962Z,98861.03
2023-04-15T06:09:08.941Z,98866.31
2023-04-15T06:11:35.970Z,98863.03
2023-04-15T06:14:02.867Z,98859.66
2023-04-15T06:16:31.319Z,98863.31
2023-04-15T06:18:58.472Z,98874.22
2023-04-15T06:21:25.632Z,98875.28
2023-04-15T06:23:53.487Z,98879.38
2023-04-15T06:26:20.607Z,98872.78
2023-04-15T06:28:47.822Z,98873.47
2023-04-15T06:31:14.939Z,98880.75
2023-04-15T06:33:43.511Z,98869.28
2023-04-15T06:36:10.427Z,98865.38
2023-04-15T06:38:37.360Z,98865.38
2023-04-15T06:41:04.847Z,98871.16
2023-04-15T06:43:32.156Z,98874.66
2023-04-15T06:45:59.184Z,98882.22
2023-04-15T06:48:26.928Z,98871.13
2023-04-15T06:50:56.418Z,98872.75
2023-04-15T06:53:23.771Z,98874.38
2023-04-15T06:55:51.273Z,98882.00
2023-04-15T06:58:18.727Z,98879.28
2023-04-15T07:00:46.936Z,98882.59
2023-04-15T07:03:15.274Z,98886.81
2023-04-15T07:05:42.239Z,98882.88
2023-04-15T07:08:10.495Z,98881.28
2023-04-15T07:10:37.433Z,98884.56
2023-04-15T07:13:08.806Z,98882.44
2023-04-15T07:15:35.930Z,98876.69
2023-04-15T07:18:03.241Z,98874.66
2023-04-15T07:20:30.646Z,98876.66
2023-04-15T07:22:57.740Z,98871.22
2023-04-15T07:25:26.080Z,98877.25
2023-04-15T07:27:54.203Z,98868.91
2023-04-15T07:30:21.391Z,98872.94
2023-04-15T07:32:48.325Z,98861.69
2023-04-15T07:35:15.876Z,98855.19
2023-04-15T07:37:42.765Z,98862.50
2023-04-15T07:40:11.597Z,98862.13
2023-04-15T07:42:41.416Z,98858.38
2023-04-15T07:45:09.898Z,98872.19
2023-04-15T07:47:36.745Z,98863.44
2023-04-15T07:50:04.536Z,98857.88
2023-04-15T07:52:31.354Z,98855.03
2023-04-15T07:54:58.425Z,98856.78
2023-04-15T07:57:25.805Z,98855.63
2023-04-15T07:59:53.981Z,98859.66
2023-04-15T08:02:21.152Z,98859.19
2023-04-15T08:04:48.531Z,98839.66
2023-04-15T08:07:15.452Z,98843.25
2023-04-15T08:09:42.306Z,98846.13
2023-04-15T08:12:12.068Z,98837.13
2023-04-15T08:14:39.170Z,98829.56
2023-04-15T08:17:09.997Z,98837.03
2023-04-15T08:19:36.874Z,98837.13
2023-04-15T08:22:04.205Z,98838.72
2023-04-15T08:24:32.131Z,98837.38
2023-04-15T08:26:59.047Z,98841.75
2023-04-15T08:31:12.392Z,98850.19
2023-04-15T08:33:41.037Z,98845.59
2023-04-15T08:36:08.325Z,98839.78
2023-04-15T08:41:22.999Z,98848.69
2023-04-15T08:43:54.431Z,98851.63
2023-04-15T08:46:23.816Z,98844.00
2023-04-15T08:48:51.187Z,98843.69
2023-04-15T08:51:18.715Z,98841.53
2023-04-15T08:53:46.848Z,98842.47
2023-04-15T08:56:16.027Z,98843.66
2023-04-15T08:58:45.228Z,98839.00
2023-04-15T09:01:15.964Z,98838.25
2023-04-15T09:03:45.122Z,98851.03
2023-04-15T09:06:39.825Z,98854.56
2023-04-15T09:09:08.761Z,98849.31
2023-04-15T09:11:38.371Z,98847.16
2023-04-15T09:14:05.531Z,98856.41
2023-04-15T09:16:32.881Z,98850.56
2023-04-15T09:19:20.751Z,98850.44
2023-04-15T09:21:49.263Z,98857.56
2023-04-15T09:24:37.731Z,98856.09
2023-04-15T09:27:06.372Z,98859.09
2023-04-15T09:29:33.584Z,98872.09
2023-04-15T09:32:11.226Z,98864.59
2023-04-15T09:34:39.512Z,98871.97
2023-04-15T09:37:07.781Z,98869.75
2023-04-15T09:39:50.722Z,98875.59
2023-04-15T09:42:18.320Z,98879.50
2023-04-15T09:44:50.352Z,98873.63
2023-04-15T09:47:28.971Z,98878.00
2023-04-15T09:49:58.453Z,98880.97
2023-04-15T09:52:25.511Z,98880.53
2023-04-15T09:54:54.873Z,98875.34
2023-04-15T09:57:22.020Z,98886.00
2023-04-15T09:59:49.233Z,98882.03
2023-04-15T10:02:19.359Z,98875.41
2023-04-15T10:04:48.921Z,98885.63
2023-04-15T10:07:18.088Z,98874.28
2023-04-15T10:09:46.447Z,98860.28
2023-04-15T10:12:16.638Z,98873.31
2023-04-15T10:14:44.244Z,98871.06
2023-04-15T10:17:12.499Z,98870.44
2023-04-15T10:19:41.321Z,98866.75
2023-04-15T10:22:09.079Z,98868.75
2023-04-15T10:24:40.298Z,98868.75
2023-04-15T10:27:08.921Z,98864.84
2023-04-15T10:29:36.762Z,98872.81
2023-04-15T10:32:05.109Z,98877.47
2023-04-15T10:34:33.291Z,98876.00
2023-04-15T10:37:03.085Z,98866.13
2023-04-15T10:39:43.771Z,98866.41
2023-04-15T10:42:13.636Z,98878.75
2023-04-15T10:44:49.016Z,98886.84
2023-04-15T10:51:57.260Z,98890.59
2023-04-15T10:54:33.146Z,98882.03
2023-04-15T10:57:14.794Z,98880.88
2023-04-15T11:00:18.001Z,98879.75
2023-04-15T11:04:09.905Z,98874.81
2023-04-15T11:06:45.162Z,98876.25
2023-04-15T11:09:32.224Z,98886.03
2023-04-15T11:12:09.294Z,98880.53
2023-04-15T11:18:55.138Z,98884.81
2023-04-15T11:21:25.750Z,98876.94
2023-04-15T11:23:52.657Z,98880.69
2023-04-15T11:26:19.474Z,98890.69
2023-04-15T11:29:37.943Z,98880.06
2023-04-15T11:32:05.999Z,98894.19
2023-04-15T11:34:35.595Z,98883.28
2023-04-15T11:37:05.195Z,98899.44
2023-04-15T11:39:32.654Z,98894.53
2023-04-15T11:42:00.455Z,98900.84
2023-04-15T11:44:28.426Z,98903.81
2023-04-15T11:46:56.687Z,98906.22
2023-04-15T11:49:29.360Z,98913.22
2023-04-15T11:51:56.302Z,98918.00
2023-04-15T11:54:23.328Z,98925.25
2023-04-15T11:56:54.223Z,98934.81
2023-04-15T11:59:21.148Z,98937.50
2023-04-15T12:01:48.065Z,98942.09
2023-04-15T12:04:21.664Z,98950.13
2023-04-15T12:06:51.777Z,98946.03
2023-04-15T12:09:18.812Z,98950.63
2023-04-15T12:14:35.921Z,98966.41
2023-04-15T12:17:05.238Z,98956.69
2023-04-15T12:19:37.583Z,98970.97
2023-04-15T12:22:41.679Z,98971.19
2023-04-15T12:25:10.477Z,98970.44
2023-04-15T12:27:37.554Z,98974.69
2023-04-15T12:30:06.224Z,98974.88
2023-04-15T12:32:36.030Z,98984.38
2023-04-15T12:35:05.647Z,98979.75
2023-04-15T12:37:32.649Z,98976.66
2023-04-15T12:39:59.610Z,98987.50
2023-04-15T12:42:26.622Z,98988.47
2023-04-15T12:44:53.861Z,98996.97
2023-04-15T12:47:24.587Z,98999.97
2023-04-15T12:50:18.652Z,99006.09
2023-04-15T12:52:46.662Z,99014.78
2023-04-15T12:55:14.046Z,99015.00
2023-04-15T12:57:51.362Z,99022.06
2023-04-15T13:00:18.719Z,99016.34
2023-04-15T13:02:46.105Z,99026.66
2023-04-15T13:05:13.245Z,99028.53
2023-04-15T13:08:03.847Z,99023.16
2023-04-15T13:10:31.113Z,99034.97
2023-04-15T13:12:58.254Z,99036.19
2023-04-15T13:15:27.831Z,99039.06
2023-04-15T13:17:55.659Z,99041.28
2023-04-15T13:20:23.992Z,99044.91
2023-04-15T13:22:52.446Z,99055.94
2023-04-15T13:25:21.206Z,99044.75
2023-04-15T13:27:49.872Z,99055.47
2023-04-15T13:30:21.705Z,99045.59
2023-04-15T13:32:50.702Z,99054.88
2023-04-15T13:35:18.019Z,99061.13
2023-04-15T13:37:44.906Z,99057.75
2023-04-15T13:40:12.402Z,99069.91
2023-04-15T13:58:30.144Z,99075.09
2023-04-15T14:00:57.050Z,99079.88
2023-04-15T14:03:24.139Z,99081.47
2023-04-15T14:05:51.928Z,99086.38
2023-04-15T14:08:19.169Z,99084.88
2023-04-15T14:10:46.337Z,99091.97
2023-04-15T14:13:13.566Z,99092.03
2023-04-15T14:15:43.695Z,99093.59
2023-04-15T14:18:10.727Z,99099.41
2023-04-15T14:20:37.657Z,99101.13
2023-04-15T14:23:04.735Z,99105.34
2023-04-15T14:25:34.048Z,99110.47
2023-04-15T14:28:01.393Z,99108.59
2023-04-15T14:30:28.501Z,99123.88
2023-04-15T14:32:56.923Z,99123.00
2023-04-15T14:35:24.965Z,99121.69
2023-04-15T14:37:52.967Z,99134.38
2023-04-15T14:40:20.371Z,99132.25
2023-04-15T14:43:12.546Z,99137.97
2023-04-15T14:45:42.161Z,99132.13
2023-04-15T14:48:13.865Z,99138.13
2023-04-15T14:50:41.478Z,99144.09
2023-04-15T14:53:08.412Z,99138.78
2023-04-15T14:55:35.433Z,99138.41
2023-04-15T14:58:02.348Z,99139.31
2023-04-15T15:00:30.737Z,99143.03
2023-04-15T15:02:58.816Z,99149.94
2023-04-15T15:05:27.913Z,99153.78
2023-04-15T15:07:55.760Z,99155.38
2023-04-15T15:10:32.709Z,99168.84
2023-04-15T15:13:10.553Z,99159.88
2023-04-15T15:15:38.805Z,99169.34
2023-04-15T15:18:06.098Z,99189.13
2023-04-15T15:20:34.387Z,99196.09
2023-04-15T15:23:01.529Z,99202.38
2023-04-15T15:25:28.962Z,99213.38
2023-04-15T15:27:57.413Z,99222.31
2023-04-15T15:30:25.348Z,99224.09
2023-04-15T15:32:53.616Z,99224.56
2023-04-15T15:35:22.514Z,99232.69
2023-04-15T15:37:51.064Z,99234.09
2023-04-15T15:40:18.353Z,99231.97
2023-04-15T15:42:45.688Z,99234.09
2023-04-15T15:45:12.532Z,99225.84
2023-04-15T15:47:41.508Z,99246.44
2023-04-15T15:50:09.516Z,99241.59
2023-04-15T15:52:37.968Z,99253.06
2023-04-15T15:55:08.070Z,99250.03
2023-04-15T15:57:35.416Z,99255.44
2023-04-15T16:00:12.047Z,99259.69
2023-04-15T16:03:05.203Z,99254.84
2023-04-15T16:05:27.574Z,99267.06
2023-04-15T16:07:54.745Z,99267.44
2023-04-15T16:10:24.051Z,99272.25
2023-04-15T16:12:50.986Z,99272.16
2023-04-15T16:15:18.646Z,99269.09
2023-04-15T16:17:48.231Z,99279.09
2023-04-15T16:20:15.544Z,99290.72
2023-04-15T16:22:42.675Z,99292.88
2023-04-15T16:25:17.421Z,99294.03
2023-04-15T16:28:25.706Z,99304.34
2023-04-15T16:30:53.822Z,99308.53
2023-04-15T16:42:12.048Z,99327.63
2023-04-15T16:44:40.662Z,99333.19
2023-04-15T16:47:08.034Z,99340.47
2023-04-15T16:49:34.890Z,99338.59
2023-04-15T16:52:04.859Z,99355.22
2023-04-15T16:54:31.834Z,99349.94
2023-04-15T16:56:58.841Z,99347.22
2023-04-15T16:59:25.785Z,99349.94
2023-04-15T17:01:56.108Z,99348.97
2023-04-15T17:04:23.676Z,99346.88
2023-04-15T17:06:50.589Z,99363.09
2023-04-15T17:09:17.533Z,99358.72
2023-04-15T17:11:47.842Z,99363.09
2023-04-15T17:14:14.899Z,99359.56
2023-04-15T17:16:45.790Z,99357.47
2023-04-15T17:19:15.010Z,99360.38
2023-04-15T17:21:53.557Z,99367.00
2023-04-15T17:24:22.311Z,99366.53
2023-04-15T17:26:55.642Z,99371.28
2023-04-15T17:29:39.864Z,99382.53
2023-04-15T17:32:19.957Z,99384.94
2023-04-15T17:35:09.850Z,99393.19
2023-04-15T17:37:57.711Z,99396.34
2023-04-15T17:40:44.560Z,99395.00
2023-04-15T17:43:32.219Z,99395.16
2023-04-15T17:46:21.263Z,99406.47
2023-04-15T17:49:08.351Z,99410.38
2023-04-15T17:51:58.230Z,99409.88
2023-04-15T17:54:45.891Z,99410.75
2023-04-15T17:57:33.295Z,99415.19
2023-04-15T18:00:20.305Z,99423.28
2023-04-15T18:03:08.155Z,99414.81
2023-04-15T18:05:56.138Z,99418.25
2023-04-15T18:08:44.427Z,99427.81
2023-04-15T18:11:32.776Z,99436.78
2023-04-15T18:14:33.051Z,99436.63
2023-04-15T18:17:21.578Z,99440.22
2023-04-15T18:20:09.494Z,99444.19
2023-04-15T18:22:36.984Z,99436.94
2023-04-15T18:25:07.115Z,99442.94
2023-04-15T18:27:35.040Z,99445.47
2023-04-15T18:30:02.412Z,99452.91
2023-04-15T18:32:31.821Z,99452.50
2023-04-15T18:34:59.440Z,99459.34
2023-04-15T18:37:27.335Z,99469.75
2023-04-15T18:39:54.490Z,99461.03
2023-04-15T18:42:24.132Z,99467.06
2023-04-15T18:44:52.840Z,99470.19
2023-04-15T18:47:19.981Z,99466.69
2023-04-15T18:49:46.865Z,99478.56
2023-04-15T18:52:13.779Z,99484.53
2023-04-15T18:54:40.687Z,99477.06
2023-04-15T18:57:09.240Z,99483.59
2023-04-15T18:59:38.322Z,99485.88
2023-04-15T19:02:05.338Z,99491.09
2023-04-15T19:04:32.992Z,99499.19
2023-04-15T19:07:01.632Z,99500.63
2023-04-15T19:09:29.234Z,99509.97
2023-04-15T19:11:56.629Z,99505.84
2023-04-15T19:14:24.220Z,99515.38
2023-04-15T19:16:52.596Z,99514.78
2023-04-15T19:19:19.637Z,99519.31
2023-04-15T19:21:46.999Z,99528.63
2023-04-15T19:24:15.089Z,99525.72
2023-04-15T19:26:42.126Z,99536.09
2023-04-15T19:29:09.209Z,99533.81
2023-04-15T19:31:38.746Z,99534.03
2023-04-15T19:34:07.666Z,99533.00
2023-04-15T19:36:36.451Z,99537.16
2023-04-15T19:39:06.328Z,99532.38
2023-04-15T19:41:33.971Z,99535.88
2023-04-15T19:55:21.515Z,99536.97
2023-04-15T19:57:49.208Z,99541.09
2023-04-15T20:00:48.277Z,99541.53
2023-04-15T20:03:15.927Z,99542.16
2023-04-15T20:05:45.814Z,99538.19
2023-04-15T20:08:15.611Z,99536.94
2023-04-15T20:10:44.225Z,99542.34
2023-04-15T20:18:01.559Z,99549.44
2023-04-15T20:20:57.811Z,99542.16
2023-04-15T20:24:04.667Z,99546.06
2023-04-15T20:26:33.234Z,99548.34
2023-04-15T20:29:00.538Z,99555.22
2023-04-15T20:31:27.651Z,99550.84
2023-04-15T20:33:54.766Z,99550.84
2023-04-15T20:36:21.957Z,99555.22
2023-04-15T20:38:48.916Z,99556.66
2023-04-15T20:41:15.846Z,99552.50
2023-04-15T20:43:44.119Z,99557.91
2023-04-15T20:46:20.387Z,99555.81
2023-04-15T20:48:48.577Z,99559.97
2023-04-15T20:51:15.562Z,99566.00
2023-04-15T20:53:42.563Z,99562.25
2023-04-15T20:56:09.842Z,99561.81
2023-04-15T20:58:36.792Z,99568.28
2023-04-15T21:01:05.112Z,99566.00
2023-04-15T21:03:32.281Z,99568.69
2023-04-15T21:05:59.661Z,99575.09
2023-04-15T21:08:26.639Z,99577.78
2023-04-15T21:10:53.499Z,99577.59
2023-04-15T21:13:20.564Z,99585.88
2023-04-15T21:15:47.769Z,99584.25
2023-04-15T21:18:16.036Z,99587.97
2023-04-15T21:20:42.906Z,99591.91
2023-04-15T21:23:11.328Z,99594.81
2023-04-15T21:25:40.073Z,99596.03
2023-04-15T21:28:07.043Z,99599.16
2023-04-15T21:30:33.854Z,99601.66
2023-04-15T21:33:00.869Z,99603.09
2023-04-15T21:35:29.738Z,99606.84
2023-04-15T21:37:57.600Z,99608.50
2023-04-15T21:40:24.501Z,99607.44
2023-04-15T21:42:52.601Z,99612.84
2023-04-15T21:45:19.629Z,99621.34
2023-04-15T21:48:07.417Z,99623.03
2023-04-15T21:50:39.029Z,99612.44
2023-04-15T21:53:09.157Z,99618.22
2023-04-15T21:55:36.517Z,99623.22
2023-04-15T21:58:03.446Z,99622.19
2023-04-15T22:00:31.439Z,99619.91
2023-04-15T22:02:58.404Z,99626.75
2023-04-15T22:05:25.454Z,99629.44
2023-04-15T22:07:54.385Z,99636.50
2023-04-15T22:10:21.794Z,99634.41
2023-04-15T22:12:48.833Z,99646.47
2023-04-15T22:15:16.789Z,99638.56
2023-04-15T22:17:44.065Z,99644.59
2023-04-15T22:20:11.244Z,99647.50
2023-04-15T22:22:44.150Z,99650.16
2023-04-15T22:25:14.478Z,99655.78
2023-04-15T22:27:41.586Z,99647.25
2023-04-15T22:30:10.472Z,99644.56
2023-04-15T22:32:37.352Z,99652.66
2023-04-15T22:35:05.248Z,99660.94
2023-04-15T22:37:32.265Z,99663.84
2023-04-15T22:39:59.445Z,99660.56
2023-04-15T22:42:28.004Z,99662.00
2023-04-15T22:44:54.898Z,99661.41
2023-04-15T22:47:21.819Z,99664.91
2023-04-15T22:49:48.828Z,99684.41
2023-04-15T22:52:29.532Z,99680.03
2023-04-15T22:54:58.141Z,99675.69
2023-04-15T22:57:25.214Z,99674.25
2023-04-15T22:59:53.549Z,99669.69
2023-04-15T23:02:20.601Z,99678.78
2023-04-15T23:04:47.804Z,99675.69
2023-04-15T23:07:14.982Z,99683.78
2023-04-15T23:09:41.878Z,99679.63
2023-04-15T23:12:08.777Z,99683.59
2023-04-15T23:14:36.137Z,99685.84
2023-04-15T23:17:04.343Z,99688.56
2023-04-15T23:19:31.186Z,99686.06
2023-04-15T23:21:58.219Z,99687.91
2023-04-15T23:24:25.070Z,99687.50
2023-04-15T23:26:52.182Z,99687.09
2023-04-15T23:29:19.004Z,99691.25
2023-04-15T23:31:46.049Z,99681.28
2023-04-15T23:34:14.527Z,99702.44
2023-04-15T23:36:41.673Z,99695.81
2023-04-15T23:39:08.973Z,99701.41
2023-04-15T23:46:23.843Z,99700.97
2023-04-15T23:48:51.106Z,99702.44
2023-04-15T23:51:19.627Z,99706.78
2023-04-15T23:53:47.300Z,99699.94
2023-04-15T23:56:14.144Z,99706.78
2023-04-15T23:58:41.360Z,99707.63
